createdAt,value
2023-02-09T00:03:22.757Z,-1.90
2023-02-09T00:08:25.364Z,-2.10
2023-02-09T00:13:28.271Z,-1.80
2023-02-09T00:18:33.929Z,-2.20
2023-02-09T00:23:39.123Z,-2.90
2023-02-09T00:28:41.652Z,-2.80
2023-02-09T00:33:44.240Z,-1.70
2023-02-09T00:38:46.791Z,-2.60
2023-02-09T00:43:49.218Z,-3.10
2023-02-09T00:48:51.679Z,-3.20
2023-02-09T00:53:54.188Z,-3.20
2023-02-09T00:58:56.713Z,-2.00
2023-02-09T01:04:00.808Z,-1.50
2023-02-09T01:09:03.689Z,-0.70
2023-02-09T01:14:07.364Z,-0.80
2023-02-09T01:19:13.551Z,-2.00
2023-02-09T01:24:16.512Z,-1.40
2023-02-09T01:29:20.223Z,-1.50
2023-02-09T01:34:23.607Z,-1.40
2023-02-09T01:39:26.222Z,-1.40
2023-02-09T01:44:31.498Z,-1.90
2023-02-09T01:49:34.034Z,-2.90
2023-02-09T01:54:44.497Z,-2.40
2023-02-09T01:59:51.028Z,-1.20
2023-02-09T02:04:54.100Z,-0.20
2023-02-09T02:09:59.006Z,-1.20
2023-02-09T02:15:01.625Z,-0.80
2023-02-09T02:20:29.016Z,-0.40
2023-02-09T02:26:17.195Z,-0.90
2023-02-09T02:31:41.620Z,-1.00
2023-02-09T02:37:02.583Z,-1.00
2023-02-09T02:42:39.809Z,-1.00
2023-02-09T02:47:56.622Z,-1.50
2023-02-09T02:53:03.726Z,-1.70
2023-02-09T02:58:09.455Z,-2.10
2023-02-09T03:03:31.267Z,-2.20
2023-02-09T03:08:51.077Z,-1.80
2023-02-09T03:13:59.208Z,-1.80
2023-02-09T03:19:41.696Z,-1.50
2023-02-09T03:24:52.890Z,-1.00
2023-02-09T03:30:01.044Z,-1.00
2023-02-09T03:35:04.398Z,-0.50
2023-02-09T03:40:07.463Z,-1.20
2023-02-09T03:45:10.004Z,-1.10
2023-02-09T03:50:12.573Z,-1.30
2023-02-09T03:55:15.200Z,-1.80
2023-02-09T04:00:18.027Z,-2.30
2023-02-09T04:05:23.085Z,-2.30
2023-02-09T04:10:26.047Z,-2.40
2023-02-09T04:15:28.598Z,-2.30
2023-02-09T04:20:31.122Z,-2.30
2023-02-09T04:25:33.757Z,-2.00
2023-02-09T04:30:36.398Z,-2.20
2023-02-09T04:35:38.989Z,-2.50
2023-02-09T04:40:41.509Z,-2.60
2023-02-09T04:45:44.143Z,-2.70
2023-02-09T04:50:47.374Z,-2.50
2023-02-09T04:55:51.324Z,-2.60
2023-02-09T05:00:55.764Z,-2.90
2023-02-09T05:06:00.971Z,-2.90
2023-02-09T05:11:03.555Z,-3.10
2023-02-09T05:16:13.415Z,-3.20
2023-02-09T05:21:16.100Z,-3.30
2023-02-09T05:26:18.714Z,-3.30
2023-02-09T05:31:21.398Z,-3.30
2023-02-09T05:36:23.894Z,-3.30
2023-02-09T05:41:45.059Z,-3.30
2023-02-09T05:46:47.527Z,-3.30
2023-02-09T05:51:50.182Z,-3.30
2023-02-09T05:56:52.859Z,-3.10
2023-02-09T06:01:55.606Z,-3.30
2023-02-09T06:06:58.559Z,-3.30
2023-02-09T06:12:01.036Z,-3.40
2023-02-09T06:17:03.604Z,-3.30
2023-02-09T06:22:06.179Z,1.60
2023-02-09T06:27:08.736Z,1.30
2023-02-09T06:32:11.548Z,-0.90
2023-02-09T06:37:14.270Z,-2.10
2023-02-09T06:42:16.863Z,-2.70
2023-02-09T06:47:19.449Z,-2.90
2023-02-09T06:52:21.964Z,-3.20
2023-02-09T06:57:24.539Z,-3.40
2023-02-09T07:02:27.101Z,-3.50
2023-02-09T07:07:29.709Z,-3.70
2023-02-09T07:12:32.439Z,-3.70
2023-02-09T07:17:35.015Z,-3.60
2023-02-09T07:22:37.608Z,-3.00
2023-02-09T07:27:44.420Z,-1.90
2023-02-09T07:32:46.964Z,-1.30
2023-02-09T07:37:49.519Z,-0.10
2023-02-09T07:42:52.908Z,0.60
2023-02-09T07:47:55.374Z,0.30
2023-02-09T08:03:05.656Z,-3.00
2023-02-09T08:13:12.437Z,-3.10
2023-02-09T08:18:25.495Z,-3.10
2023-02-09T08:23:31.962Z,-2.90
2023-02-09T08:28:43.685Z,-2.80
2023-02-09T08:33:48.554Z,-2.60
2023-02-09T08:38:51.223Z,-2.50
2023-02-09T08:43:53.816Z,-2.40
2023-02-09T08:48:56.393Z,-2.30
2023-02-09T08:53:58.944Z,-2.10
2023-02-09T08:59:01.509Z,-2.00
2023-02-09T09:04:04.135Z,-2.00
2023-02-09T09:09:06.918Z,-1.90
2023-02-09T09:14:09.575Z,-1.30
2023-02-09T09:19:12.106Z,-0.90
2023-02-09T09:24:16.216Z,-0.30
2023-02-09T09:29:18.822Z,0.10
2023-02-09T09:34:21.349Z,0.30
2023-02-09T09:39:25.659Z,0.80
2023-02-09T09:44:34.678Z,1.10
2023-02-09T09:49:37.974Z,1.30
2023-02-09T09:54:41.766Z,1.60
2023-02-09T09:59:44.500Z,2.20
2023-02-09T10:04:48.623Z,1.90
2023-02-09T10:10:03.463Z,1.40
2023-02-09T10:15:29.624Z,1.30
2023-02-09T10:20:44.490Z,1.80
2023-02-09T10:25:54.454Z,2.60
2023-02-09T10:31:00.466Z,4.40
2023-02-09T10:36:06.186Z,5.20
2023-02-09T10:41:10.565Z,4.10
2023-02-09T10:46:19.124Z,4.40
2023-02-09T10:51:30.108Z,5.00
2023-02-09T10:56:43.570Z,6.50
2023-02-09T11:01:58.467Z,7.10
2023-02-09T11:07:19.372Z,5.60
2023-02-09T11:12:23.063Z,4.80
2023-02-09T11:17:48.036Z,6.50
2023-02-09T11:22:53.235Z,6.70
2023-02-09T11:27:58.777Z,5.20
2023-02-09T11:33:29.280Z,5.50
2023-02-09T11:38:49.691Z,5.20
2023-02-09T11:43:55.321Z,6.50
2023-02-09T11:49:06.008Z,6.60
2023-02-09T11:54:23.076Z,6.10
2023-02-09T11:59:31.714Z,6.90
2023-02-09T12:04:40.213Z,6.40
2023-02-09T12:09:55.754Z,6.60
2023-02-09T12:15:20.850Z,6.50
2023-02-09T12:20:38.725Z,5.40
2023-02-09T12:25:53.265Z,4.50
2023-02-09T12:30:58.724Z,4.30
2023-02-09T12:36:01.293Z,3.80
2023-02-09T12:41:06.804Z,4.00
2023-02-09T12:46:48.495Z,4.00
2023-02-09T12:51:50.966Z,4.80
2023-02-09T12:56:53.662Z,5.00
2023-02-09T13:02:08.008Z,5.40
2023-02-09T13:07:25.309Z,4.90
2023-02-09T13:12:38.088Z,4.00
2023-02-09T13:18:00.852Z,4.10
2023-02-09T13:23:35.968Z,4.10
2023-02-09T13:28:38.545Z,3.90
2023-02-09T13:33:48.297Z,3.50
2023-02-09T13:38:51.321Z,2.90
2023-02-09T13:43:53.816Z,2.80
2023-02-09T13:49:13.264Z,2.70
2023-02-09T13:54:20.495Z,2.70
2023-02-09T13:59:23.152Z,2.60
2023-02-09T14:04:34.682Z,2.50
2023-02-09T14:09:48.828Z,2.50
2023-02-09T14:15:18.648Z,2.60
2023-02-09T14:20:24.635Z,2.50
2023-02-09T14:25:28.786Z,2.40
2023-02-09T14:30:34.289Z,2.30
2023-02-09T14:35:47.598Z,2.10
2023-02-09T14:40:50.500Z,2.10
2023-02-09T14:46:01.232Z,2.30
2023-02-09T14:51:17.554Z,2.40
2023-02-09T14:56:35.472Z,3.10
2023-02-09T15:01:37.972Z,4.30
2023-02-09T15:06:42.789Z,4.80
2023-02-09T15:12:04.012Z,4.70
2023-02-09T15:17:18.554Z,4.60
2023-02-09T15:22:22.446Z,4.30
2023-02-09T15:27:24.957Z,3.80
2023-02-09T15:32:28.184Z,3.00
2023-02-09T15:37:38.473Z,2.20
2023-02-09T15:43:00.387Z,1.70
2023-02-09T15:48:03.833Z,1.40
2023-02-09T15:53:10.812Z,1.00
2023-02-09T16:03:20.369Z,0.30
2023-02-09T16:08:26.092Z,0.10
2023-02-09T16:13:28.770Z,-0.10
2023-02-09T16:18:31.353Z,-0.30
2023-02-09T16:23:35.152Z,-0.40
2023-02-09T16:28:37.706Z,-0.40
2023-02-09T16:33:41.672Z,-0.60
2023-02-09T16:38:44.857Z,-0.80
2023-02-09T16:43:47.399Z,-1.00
2023-02-09T16:48:50.336Z,-1.00
2023-02-09T16:53:53.123Z,-0.30
2023-02-09T16:58:55.615Z,1.10
2023-02-09T17:03:58.287Z,2.90
2023-02-09T17:09:00.808Z,3.40
2023-02-09T17:14:03.411Z,2.10
2023-02-09T17:19:12.876Z,1.10
2023-02-09T17:24:17.313Z,0.80
2023-02-09T17:29:22.014Z,0.80
2023-02-09T17:34:28.356Z,1.00
2023-02-09T17:39:31.037Z,0.90
2023-02-09T17:44:45.670Z,0.40
2023-02-09T17:49:49.170Z,0.30
2023-02-09T17:54:51.602Z,0.00
2023-02-09T17:59:54.142Z,-0.10
2023-02-09T18:04:56.692Z,-0.20
2023-02-09T18:09:59.216Z,-0.10
2023-02-09T18:15:01.749Z,-0.10
2023-02-09T18:20:04.959Z,0.50
2023-02-09T18:25:11.527Z,0.80
2023-02-09T18:30:14.509Z,0.80
2023-02-09T18:35:22.270Z,1.50
2023-02-09T18:40:25.363Z,1.80
2023-02-09T18:45:28.540Z,1.50
2023-02-09T18:50:33.574Z,2.30
2023-02-09T18:55:36.176Z,3.00
2023-02-09T19:00:38.659Z,2.80
2023-02-09T19:05:41.567Z,3.60
2023-02-09T19:10:44.430Z,3.50
2023-02-09T19:15:47.178Z,4.10
2023-02-09T19:20:49.868Z,4.10
2023-02-09T19:26:03.304Z,4.20
2023-02-09T19:31:12.721Z,3.40
2023-02-09T19:36:15.352Z,3.60
2023-02-09T19:41:17.977Z,4.40
2023-02-09T19:46:20.665Z,5.00
2023-02-09T19:51:23.808Z,4.80
2023-02-09T19:56:26.279Z,4.90
2023-02-09T20:01:31.370Z,5.60
2023-02-09T20:06:34.155Z,4.90
2023-02-09T20:11:36.793Z,5.60
2023-02-09T20:16:40.190Z,7.20
2023-02-09T20:21:42.907Z,7.40
2023-02-09T20:26:46.690Z,8.60
2023-02-09T20:31:49.645Z,9.00
2023-02-09T20:36:52.230Z,9.00
2023-02-09T20:42:15.506Z,9.00
2023-02-09T20:47:18.395Z,8.50
2023-02-09T20:52:20.851Z,8.10
2023-02-09T20:57:32.105Z,8.00
2023-02-09T21:02:34.629Z,8.10
2023-02-09T21:07:37.264Z,7.40
2023-02-09T21:12:41.089Z,7.50
2023-02-09T21:17:48.806Z,8.00
2023-02-09T21:22:51.746Z,8.10
2023-02-09T21:27:55.975Z,8.20
2023-02-09T21:33:00.472Z,7.90
2023-02-09T21:38:03.319Z,7.70
2023-02-09T21:43:05.951Z,8.60
2023-02-09T21:48:08.480Z,8.30
2023-02-09T21:53:10.974Z,8.20
2023-02-09T21:58:13.452Z,7.90
2023-02-09T22:03:15.989Z,8.20
2023-02-09T22:08:18.630Z,7.70
2023-02-09T22:13:21.308Z,7.90
2023-02-09T22:18:24.321Z,8.00
2023-02-09T22:23:29.689Z,7.70
2023-02-09T22:28:36.019Z,7.60
2023-02-09T22:33:39.563Z,8.40
2023-02-09T22:38:42.373Z,8.00
2023-02-09T22:43:45.354Z,8.30
2023-02-09T22:48:56.492Z,8.20
2023-02-09T22:54:00.184Z,8.20
2023-02-09T22:59:02.719Z,7.70
2023-02-09T23:04:05.400Z,7.50
2023-02-09T23:09:08.740Z,8.00
2023-02-09T23:14:12.638Z,7.80
2023-02-09T23:19:19.972Z,7.30
2023-02-09T23:24:22.705Z,7.50
2023-02-09T23:29:25.212Z,6.60
2023-02-09T23:34:27.811Z,6.30
2023-02-09T23:39:30.482Z,6.80
2023-02-09T23:44:33.164Z,7.00
2023-02-09T23:49:35.735Z,7.50
2023-02-09T23:54:38.222Z,7.10
2023-02-09T23:59:40.802Z,6.90
